M/y Unica — J8Y4072 — position and weather

sailwx.info

Track history (hours):
 
Tides and Currents Weather Stations Pressure Air Temp Water Temp Dewpoint Dewpoint Depression Visibility Wind Speed Wind Dir Waves Ship Positions

M/y Unica

Last reported at 2014-Sep-15 19:25 UTC. Time now 2014-Sep-19 11:55 UTC.
Position N 42°38' E 010°14'.

Length 30 m; draft 2 m.

Type: Pleasure craft. MMSI: 377319000.

Date/timePositionNaut miles runAvg speedWind from/ knotsBaromVisibWave heightAir tempDewpointWater temp
2014-Sep-15 19:25N 42°38' E 010°14'  
2014-Sep-13 05:16N 40°47' E 013°39'1114.9
2014-Sep-13 04:33N 40°46' E 013°53'3 2.7
2014-Sep-13 03:32N 40°45' E 013°57'0 0.0
2014-Sep-13 02:29N 40°45' E 013°57'0 0.0
2014-Sep-13 01:32N 40°45' E 013°57'0 0.0
2014-Sep-13 00:32N 40°45' E 013°57'0 0.0
2014-Sep-12 23:32N 40°45' E 013°57'0 0.0
2014-Sep-12 22:32N 40°45' E 013°57'0 0.0
2014-Sep-12 21:32N 40°45' E 013°57'0 0.0
2014-Sep-12 20:32N 40°45' E 013°57'0 0.0
2014-Sep-12 19:32N 40°45' E 013°57'0 0.0
2014-Sep-12 18:32N 40°45' E 013°57'0 0.0
2014-Sep-12 17:32N 40°45' E 013°57'0 0.0
2014-Sep-12 16:29N 40°45' E 013°57'2 2.6
2014-Sep-12 15:33N 40°46' E 013°59'2 1.8
2014-Sep-12 14:30N 40°45' E 014°01'0 0.0
2014-Sep-12 13:30N 40°45' E 014°01'8 8.8
2014-Sep-12 12:33N 40°39' E 014°08'7 3.7
2014-Sep-12 10:33N 40°33' E 014°15'0 0.0
2014-Sep-12 04:06N 40°33' E 014°15'0 0.0
2014-Sep-12 03:30N 40°33' E 014°15'0 0.0
2014-Sep-12 02:30N 40°33' E 014°15'0 0.0
2014-Sep-12 01:24N 40°33' E 014°15'0 0.0
2014-Sep-12 00:30N 40°33' E 014°15'0 0.0
2014-Sep-11 23:18N 40°33' E 014°15'0 0.0
2014-Sep-11 22:30N 40°33' E 014°15'0 0.0
2014-Sep-11 21:06N 40°33' E 014°15'0 0.0
2014-Sep-11 20:30N 40°33' E 014°15'0 0.0
2014-Sep-11 18:06N 40°33' E 014°15'0 0.0
2014-Sep-11 16:28N 40°33' E 014°15'1 1.5
2014-Sep-11 15:33N 40°34' E 014°13'3 2.6
2014-Sep-11 14:29N 40°33' E 014°16'  
Track history (hours):
 
Tides and Currents Weather Stations Pressure Air Temp Water Temp Dewpoint Dewpoint Depression Visibility Wind Speed Wind Dir Waves Ship Positions

M/y Unica

Last reported at 2014-Sep-15 19:25 UTC. Time now 2014-Sep-19 11:55 UTC.
Position N 42°38' E 010°14'.

Length 30 m; draft 2 m.

Type: Pleasure craft. MMSI: 377319000.

Date/timePositionNaut miles runAvg speedWind from/ knotsBaromVisibWave heightAir tempDewpointWater temp
2014-Sep-15 19:25N 42°38' E 010°14'  
2014-Sep-13 05:16N 40°47' E 013°39'1114.9
2014-Sep-13 04:33N 40°46' E 013°53'3 2.7
2014-Sep-13 03:32N 40°45' E 013°57'0 0.0
2014-Sep-13 02:29N 40°45' E 013°57'0 0.0
2014-Sep-13 01:32N 40°45' E 013°57'0 0.0
2014-Sep-13 00:32N 40°45' E 013°57'0 0.0
2014-Sep-12 23:32N 40°45' E 013°57'0 0.0
2014-Sep-12 22:32N 40°45' E 013°57'0 0.0
2014-Sep-12 21:32N 40°45' E 013°57'0 0.0
2014-Sep-12 20:32N 40°45' E 013°57'0 0.0
2014-Sep-12 19:32N 40°45' E 013°57'0 0.0
2014-Sep-12 18:32N 40°45' E 013°57'0 0.0
2014-Sep-12 17:32N 40°45' E 013°57'0 0.0
2014-Sep-12 16:29N 40°45' E 013°57'2 2.6
2014-Sep-12 15:33N 40°46' E 013°59'2 1.8
2014-Sep-12 14:30N 40°45' E 014°01'0 0.0
2014-Sep-12 13:30N 40°45' E 014°01'8 8.8
2014-Sep-12 12:33N 40°39' E 014°08'7 3.7
2014-Sep-12 10:33N 40°33' E 014°15'0 0.0
2014-Sep-12 04:06N 40°33' E 014°15'0 0.0
2014-Sep-12 03:30N 40°33' E 014°15'0 0.0
2014-Sep-12 02:30N 40°33' E 014°15'0 0.0
2014-Sep-12 01:24N 40°33' E 014°15'0 0.0
2014-Sep-12 00:30N 40°33' E 014°15'0 0.0
2014-Sep-11 23:18N 40°33' E 014°15'0 0.0
2014-Sep-11 22:30N 40°33' E 014°15'0 0.0
2014-Sep-11 21:06N 40°33' E 014°15'0 0.0
2014-Sep-11 20:30N 40°33' E 014°15'0 0.0
2014-Sep-11 18:06N 40°33' E 014°15'0 0.0
2014-Sep-11 16:28N 40°33' E 014°15'1 1.5
2014-Sep-11 15:33N 40°34' E 014°13'3 2.6
2014-Sep-11 14:29N 40°33' E 014°16'  

Dump ship's entire track history